sensor_id;sensor_type;location;lat;lon;timestamp;temperature;humidity
15452;DHT22;7827;53.594;9.938;2022-11-20T00:01:37;2.00;99.90
15452;DHT22;7827;53.594;9.938;2022-11-20T00:04:10;2.10;99.90
15452;DHT22;7827;53.594;9.938;2022-11-20T00:06:38;2.10;99.90
15452;DHT22;7827;53.594;9.938;2022-11-20T00:09:10;2.20;99.90
15452;DHT22;7827;53.594;9.938;2022-11-20T00:11:38;2.20;99.90
15452;DHT22;7827;53.594;9.938;2022-11-20T00:14:06;2.20;99.90
15452;DHT22;7827;53.594;9.938;2022-11-20T00:16:37;2.20;99.90
15452;DHT22;7827;53.594;9.938;2022-11-20T00:19:07;2.20;99.90
15452;DHT22;7827;53.594;9.938;2022-11-20T00:21:35;2.20;99.90
15452;DHT22;7827;53.594;9.938;2022-11-20T00:24:04;2.20;99.90
15452;DHT22;7827;53.594;9.938;2022-11-20T00:26:34;2.20;99.90
15452;DHT22;7827;53.594;9.938;2022-11-20T00:29:02;2.20;99.90
15452;DHT22;7827;53.594;9.938;2022-11-20T00:31:31;2.20;99.90
15452;DHT22;7827;53.594;9.938;2022-11-20T00:34:00;2.20;99.90
15452;DHT22;7827;53.594;9.938;2022-11-20T00:36:33;2.20;99.90
15452;DHT22;7827;53.594;9.938;2022-11-20T00:39:02;2.30;99.90
15452;DHT22;7827;53.594;9.938;2022-11-20T00:41:30;2.20;99.90
15452;DHT22;7827;53.594;9.938;2022-11-20T00:43:59;2.30;99.90
15452;DHT22;7827;53.594;9.938;2022-11-20T00:46:28;2.40;99.90
15452;DHT22;7827;53.594;9.938;2022-11-20T00:48:56;2.40;99.90
15452;DHT22;7827;53.594;9.938;2022-11-20T00:51:27;2.30;99.90
15452;DHT22;7827;53.594;9.938;2022-11-20T00:53:57;2.30;99.90
15452;DHT22;7827;53.594;9.938;2022-11-20T00:56:27;2.30;99.90
15452;DHT22;7827;53.594;9.938;2022-11-20T00:58:58;2.30;99.90
15452;DHT22;7827;53.594;9.938;2022-11-20T01:01:27;2.30;99.90
15452;DHT22;7827;53.594;9.938;2022-11-20T01:03:59;2.40;99.90
15452;DHT22;7827;53.594;9.938;2022-11-20T01:06:29;2.50;99.90
15452;DHT22;7827;53.594;9.938;2022-11-20T01:09:02;2.40;99.90
15452;DHT22;7827;53.594;9.938;2022-11-20T01:11:34;2.40;99.90
15452;DHT22;7827;53.594;9.938;2022-11-20T01:14:06;2.40;99.90
15452;DHT22;7827;53.594;9.938;2022-11-20T01:16:36;2.30;99.90
15452;DHT22;7827;53.594;9.938;2022-11-20T01:19:07;2.30;99.90
15452;DHT22;7827;53.594;9.938;2022-11-20T01:21:44;2.30;99.90
15452;DHT22;7827;53.594;9.938;2022-11-20T01:24:18;2.30;99.90
15452;DHT22;7827;53.594;9.938;2022-11-20T01:26:50;2.30;99.90
15452;DHT22;7827;53.594;9.938;2022-11-20T01:29:22;2.30;99.90
15452;DHT22;7827;53.594;9.938;2022-11-20T01:31:51;2.40;99.90
15452;DHT22;7827;53.594;9.938;2022-11-20T01:34:21;2.40;99.90
15452;DHT22;7827;53.594;9.938;2022-11-20T01:36:51;2.40;99.90
15452;DHT22;7827;53.594;9.938;2022-11-20T01:39:23;2.20;99.90
15452;DHT22;7827;53.594;9.938;2022-11-20T01:41:54;2.20;99.90
15452;DHT22;7827;53.594;9.938;2022-11-20T01:44:50;2.20;99.90
15452;DHT22;7827;53.594;9.938;2022-11-20T01:47:25;2.20;99.90
15452;DHT22;7827;53.594;9.938;2022-11-20T01:50:01;2.20;99.90
15452;DHT22;7827;53.594;9.938;2022-11-20T01:52:36;2.10;99.90
15452;DHT22;7827;53.594;9.938;2022-11-20T01:55:11;2.10;99.90
15452;DHT22;7827;53.594;9.938;2022-11-20T01:57:44;2.10;99.90
15452;DHT22;7827;53.594;9.938;2022-11-20T02:00:16;2.00;99.90
15452;DHT22;7827;53.594;9.938;2022-11-20T02:02:49;2.10;99.90
15452;DHT22;7827;53.594;9.938;2022-11-20T02:05:25;2.10;99.90
15452;DHT22;7827;53.594;9.938;2022-11-20T02:08:00;2.10;99.90
15452;DHT22;7827;53.594;9.938;2022-11-20T02:10:31;2.10;99.90
15452;DHT22;7827;53.594;9.938;2022-11-20T02:13:00;2.10;99.90
15452;DHT22;7827;53.594;9.938;2022-11-20T02:15:47;2.20;99.90
15452;DHT22;7827;53.594;9.938;2022-11-20T02:18:19;2.20;99.90
15452;DHT22;7827;53.594;9.938;2022-11-20T02:20:49;2.20;99.90
15452;DHT22;7827;53.594;9.938;2022-11-20T02:23:28;2.20;99.90
15452;DHT22;7827;53.594;9.938;2022-11-20T02:26:04;2.10;99.90
15452;DHT22;7827;53.594;9.938;2022-11-20T02:28:35;2.00;99.90
15452;DHT22;7827;53.594;9.938;2022-11-20T02:31:04;2.00;99.90
15452;DHT22;7827;53.594;9.938;2022-11-20T02:33:32;2.10;99.90
15452;DHT22;7827;53.594;9.938;2022-11-20T02:36:01;2.20;99.90
15452;DHT22;7827;53.594;9.938;2022-11-20T02:38:30;2.20;99.90
15452;DHT22;7827;53.594;9.938;2022-11-20T02:40:59;2.10;99.90
15452;DHT22;7827;53.594;9.938;2022-11-20T02:43:28;2.20;99.90
15452;DHT22;7827;53.594;9.938;2022-11-20T02:45:57;2.20;99.90
15452;DHT22;7827;53.594;9.938;2022-11-20T02:48:25;2.20;99.90
15452;DHT22;7827;53.594;9.938;2022-11-20T02:50:59;2.10;99.90
15452;DHT22;7827;53.594;9.938;2022-11-20T02:53:28;2.20;99.90
15452;DHT22;7827;53.594;9.938;2022-11-20T02:55:56;2.20;99.90
15452;DHT22;7827;53.594;9.938;2022-11-20T02:58:25;2.20;99.90
15452;DHT22;7827;53.594;9.938;2022-11-20T03:00:55;2.30;99.90
15452;DHT22;7827;53.594;9.938;2022-11-20T03:03:24;2.20;99.90
15452;DHT22;7827;53.594;9.938;2022-11-20T03:05:52;2.10;99.90
15452;DHT22;7827;53.594;9.938;2022-11-20T03:08:21;2.10;99.90
15452;DHT22;7827;53.594;9.938;2022-11-20T03:10:49;2.20;99.90
15452;DHT22;7827;53.594;9.938;2022-11-20T03:13:17;2.20;99.90
15452;DHT22;7827;53.594;9.938;2022-11-20T03:15:46;2.20;99.90
15452;DHT22;7827;53.594;9.938;2022-11-20T03:18:37;2.10;99.90
15452;DHT22;7827;53.594;9.938;2022-11-20T03:21:05;2.20;99.90
15452;DHT22;7827;53.594;9.938;2022-11-20T03:23:34;2.20;99.90
15452;DHT22;7827;53.594;9.938;2022-11-20T03:26:11;2.20;99.90
15452;DHT22;7827;53.594;9.938;2022-11-20T03:28:42;2.20;99.90
15452;DHT22;7827;53.594;9.938;2022-11-20T03:31:15;2.20;99.90
15452;DHT22;7827;53.594;9.938;2022-11-20T03:33:45;2.20;99.90
15452;DHT22;7827;53.594;9.938;2022-11-20T03:36:15;2.20;99.90
15452;DHT22;7827;53.594;9.938;2022-11-20T03:38:45;2.20;99.90
15452;DHT22;7827;53.594;9.938;2022-11-20T03:41:19;2.10;99.90
15452;DHT22;7827;53.594;9.938;2022-11-20T03:43:48;2.20;99.90
15452;DHT22;7827;53.594;9.938;2022-11-20T03:46:17;2.10;99.90
15452;DHT22;7827;53.594;9.938;2022-11-20T03:48:48;2.10;99.90
15452;DHT22;7827;53.594;9.938;2022-11-20T03:51:20;2.20;99.90
15452;DHT22;7827;53.594;9.938;2022-11-20T03:53:51;2.20;99.90
15452;DHT22;7827;53.594;9.938;2022-11-20T03:56:23;2.20;99.90
15452;DHT22;7827;53.594;9.938;2022-11-20T03:58:52;2.20;99.90
15452;DHT22;7827;53.594;9.938;2022-11-20T04:01:22;2.20;99.90
15452;DHT22;7827;53.594;9.938;2022-11-20T04:03:54;2.30;99.90
15452;DHT22;7827;53.594;9.938;2022-11-20T04:06:26;2.20;99.90
15452;DHT22;7827;53.594;9.938;2022-11-20T04:08:56;2.20;99.90
15452;DHT22;7827;53.594;9.938;2022-11-20T04:11:26;2.20;99.90
15452;DHT22;7827;53.594;9.938;2022-11-20T04:13:56;2.20;99.90
15452;DHT22;7827;53.594;9.938;2022-11-20T04:16:28;2.10;99.90
15452;DHT22;7827;53.594;9.938;2022-11-20T04:19:00;2.00;99.90
15452;DHT22;7827;53.594;9.938;2022-11-20T04:21:29;2.10;99.90
15452;DHT22;7827;53.594;9.938;2022-11-20T04:23:58;2.10;99.90
15452;DHT22;7827;53.594;9.938;2022-11-20T04:26:27;2.10;99.90
15452;DHT22;7827;53.594;9.938;2022-11-20T04:28:58;2.20;99.90
15452;DHT22;7827;53.594;9.938;2022-11-20T04:31:30;2.20;99.90
15452;DHT22;7827;53.594;9.938;2022-11-20T04:34:01;2.20;99.90
15452;DHT22;7827;53.594;9.938;2022-11-20T04:36:30;2.10;99.90
15452;DHT22;7827;53.594;9.938;2022-11-20T04:39:01;2.10;99.90
15452;DHT22;7827;53.594;9.938;2022-11-20T04:41:33;2.10;99.90
15452;DHT22;7827;53.594;9.938;2022-11-20T04:44:04;2.10;99.90
15452;DHT22;7827;53.594;9.938;2022-11-20T04:46:35;2.00;99.90
15452;DHT22;7827;53.594;9.938;2022-11-20T04:49:06;2.10;99.90
15452;DHT22;7827;53.594;9.938;2022-11-20T04:51:35;2.20;99.90
15452;DHT22;7827;53.594;9.938;2022-11-20T04:54:04;2.10;99.90
15452;DHT22;7827;53.594;9.938;2022-11-20T04:56:32;2.10;99.90
15452;DHT22;7827;53.594;9.938;2022-11-20T04:59:01;2.10;99.90
15452;DHT22;7827;53.594;9.938;2022-11-20T05:01:30;2.10;99.90
15452;DHT22;7827;53.594;9.938;2022-11-20T05:03:59;2.10;99.90
15452;DHT22;7827;53.594;9.938;2022-11-20T05:06:29;2.10;99.90
15452;DHT22;7827;53.594;9.938;2022-11-20T05:08:57;2.10;99.90
15452;DHT22;7827;53.594;9.938;2022-11-20T05:11:26;2.10;99.90
15452;DHT22;7827;53.594;9.938;2022-11-20T05:13:58;2.10;99.90
15452;DHT22;7827;53.594;9.938;2022-11-20T05:16:27;2.10;99.90
15452;DHT22;7827;53.594;9.938;2022-11-20T05:18:56;2.10;99.90
15452;DHT22;7827;53.594;9.938;2022-11-20T05:21:24;2.10;99.90
15452;DHT22;7827;53.594;9.938;2022-11-20T05:23:55;2.10;99.90
15452;DHT22;7827;53.594;9.938;2022-11-20T05:26:23;2.00;99.90
15452;DHT22;7827;53.594;9.938;2022-11-20T05:28:52;2.00;99.90
15452;DHT22;7827;53.594;9.938;2022-11-20T05:31:21;1.90;99.90
15452;DHT22;7827;53.594;9.938;2022-11-20T05:33:55;2.00;99.90
15452;DHT22;7827;53.594;9.938;2022-11-20T05:36:24;2.00;99.90
15452;DHT22;7827;53.594;9.938;2022-11-20T05:38:52;2.00;99.90
15452;DHT22;7827;53.594;9.938;2022-11-20T05:41:27;1.90;99.90
15452;DHT22;7827;53.594;9.938;2022-11-20T05:43:56;2.00;99.90
15452;DHT22;7827;53.594;9.938;2022-11-20T05:46:26;2.00;99.90
15452;DHT22;7827;53.594;9.938;2022-11-20T05:48:56;2.00;99.90
15452;DHT22;7827;53.594;9.938;2022-11-20T05:51:26;2.00;99.90
15452;DHT22;7827;53.594;9.938;2022-11-20T05:53:57;1.90;99.90
15452;DHT22;7827;53.594;9.938;2022-11-20T05:56:26;1.80;99.90
15452;DHT22;7827;53.594;9.938;2022-11-20T05:58:54;1.90;99.90
15452;DHT22;7827;53.594;9.938;2022-11-20T06:01:23;1.90;99.90
15452;DHT22;7827;53.594;9.938;2022-11-20T06:03:53;1.80;99.90
15452;DHT22;7827;53.594;9.938;2022-11-20T06:06:22;1.80;99.90
15452;DHT22;7827;53.594;9.938;2022-11-20T06:08:52;1.80;99.90
15452;DHT22;7827;53.594;9.938;2022-11-20T06:11:21;1.80;99.90
15452;DHT22;7827;53.594;9.938;2022-11-20T06:13:50;1.80;99.90
15452;DHT22;7827;53.594;9.938;2022-11-20T06:16:19;1.90;99.90
15452;DHT22;7827;53.594;9.938;2022-11-20T06:18:48;1.90;99.90
15452;DHT22;7827;53.594;9.938;2022-11-20T06:21:19;1.90;99.90
15452;DHT22;7827;53.594;9.938;2022-11-20T06:23:49;1.90;99.90
15452;DHT22;7827;53.594;9.938;2022-11-20T06:26:21;1.90;99.90
15452;DHT22;7827;53.594;9.938;2022-11-20T06:28:51;1.90;99.90
15452;DHT22;7827;53.594;9.938;2022-11-20T06:31:21;1.90;99.90
15452;DHT22;7827;53.594;9.938;2022-11-20T06:33:51;1.90;99.90
15452;DHT22;7827;53.594;9.938;2022-11-20T06:36:22;1.90;99.90
15452;DHT22;7827;53.594;9.938;2022-11-20T06:38:51;1.80;99.90
15452;DHT22;7827;53.594;9.938;2022-11-20T06:41:21;1.80;99.90
15452;DHT22;7827;53.594;9.938;2022-11-20T06:43:50;1.80;99.90
15452;DHT22;7827;53.594;9.938;2022-11-20T06:46:20;1.90;99.90
15452;DHT22;7827;53.594;9.938;2022-11-20T06:48:49;2.20;99.90
15452;DHT22;7827;53.594;9.938;2022-11-20T06:51:18;2.20;99.90
15452;DHT22;7827;53.594;9.938;2022-11-20T06:53:47;2.30;99.90
15452;DHT22;7827;53.594;9.938;2022-11-20T06:56:15;2.40;99.90
15452;DHT22;7827;53.594;9.938;2022-11-20T06:58:44;2.50;99.90
15452;DHT22;7827;53.594;9.938;2022-11-20T07:01:14;2.50;99.90
15452;DHT22;7827;53.594;9.938;2022-11-20T07:03:43;2.60;99.90
15452;DHT22;7827;53.594;9.938;2022-11-20T07:06:18;2.50;99.90
15452;DHT22;7827;53.594;9.938;2022-11-20T07:08:47;2.40;99.90
15452;DHT22;7827;53.594;9.938;2022-11-20T07:11:15;2.30;99.90
15452;DHT22;7827;53.594;9.938;2022-11-20T07:13:44;2.20;99.90
15452;DHT22;7827;53.594;9.938;2022-11-20T07:16:13;2.10;99.90
15452;DHT22;7827;53.594;9.938;2022-11-20T07:18:41;2.10;99.90
15452;DHT22;7827;53.594;9.938;2022-11-20T07:21:16;2.10;99.90
15452;DHT22;7827;53.594;9.938;2022-11-20T07:23:44;2.00;99.90
15452;DHT22;7827;53.594;9.938;2022-11-20T07:26:13;2.00;99.90
15452;DHT22;7827;53.594;9.938;2022-11-20T07:28:45;2.00;99.90
15452;DHT22;7827;53.594;9.938;2022-11-20T07:31:13;1.90;99.90
15452;DHT22;7827;53.594;9.938;2022-11-20T07:33:45;1.90;99.90
15452;DHT22;7827;53.594;9.938;2022-11-20T07:36:14;1.90;99.90
15452;DHT22;7827;53.594;9.938;2022-11-20T07:38:42;1.90;99.90
15452;DHT22;7827;53.594;9.938;2022-11-20T07:41:10;1.90;99.90
15452;DHT22;7827;53.594;9.938;2022-11-20T07:43:39;1.90;99.90
15452;DHT22;7827;53.594;9.938;2022-11-20T07:46:09;2.00;99.90
15452;DHT22;7827;53.594;9.938;2022-11-20T07:48:37;1.90;99.90
15452;DHT22;7827;53.594;9.938;2022-11-20T07:51:05;1.90;99.90
15452;DHT22;7827;53.594;9.938;2022-11-20T07:53:34;1.90;99.90
15452;DHT22;7827;53.594;9.938;2022-11-20T07:56:03;1.90;99.90
15452;DHT22;7827;53.594;9.938;2022-11-20T07:58:32;1.90;99.90
15452;DHT22;7827;53.594;9.938;2022-11-20T08:01:05;1.90;99.90
15452;DHT22;7827;53.594;9.938;2022-11-20T08:03:36;1.90;99.90
15452;DHT22;7827;53.594;9.938;2022-11-20T08:06:06;1.90;99.90
15452;DHT22;7827;53.594;9.938;2022-11-20T08:08:35;1.90;99.90
15452;DHT22;7827;53.594;9.938;2022-11-20T08:11:09;2.00;99.90
15452;DHT22;7827;53.594;9.938;2022-11-20T08:13:55;2.00;99.90
15452;DHT22;7827;53.594;9.938;2022-11-20T08:16:43;2.00;99.90
15452;DHT22;7827;53.594;9.938;2022-11-20T08:19:16;2.00;99.90
15452;DHT22;7827;53.594;9.938;2022-11-20T08:21:46;2.10;99.90
15452;DHT22;7827;53.594;9.938;2022-11-20T08:24:14;2.10;99.90
15452;DHT22;7827;53.594;9.938;2022-11-20T08:26:43;2.00;99.90
15452;DHT22;7827;53.594;9.938;2022-11-20T08:29:11;2.10;99.90
15452;DHT22;7827;53.594;9.938;2022-11-20T08:31:39;2.10;99.90
15452;DHT22;7827;53.594;9.938;2022-11-20T08:34:08;2.20;99.90
15452;DHT22;7827;53.594;9.938;2022-11-20T08:36:43;2.20;99.90
15452;DHT22;7827;53.594;9.938;2022-11-20T08:39:12;2.20;99.90
15452;DHT22;7827;53.594;9.938;2022-11-20T08:41:40;2.30;99.90
15452;DHT22;7827;53.594;9.938;2022-11-20T08:44:09;2.20;99.90
15452;DHT22;7827;53.594;9.938;2022-11-20T08:46:39;2.20;99.90
15452;DHT22;7827;53.594;9.938;2022-11-20T08:49:10;2.20;99.90
15452;DHT22;7827;53.594;9.938;2022-11-20T08:51:39;2.20;99.90
15452;DHT22;7827;53.594;9.938;2022-11-20T08:54:10;2.20;99.90
15452;DHT22;7827;53.594;9.938;2022-11-20T08:56:38;2.20;99.90
15452;DHT22;7827;53.594;9.938;2022-11-20T08:59:06;2.20;99.90
15452;DHT22;7827;53.594;9.938;2022-11-20T09:01:54;2.30;99.90
15452;DHT22;7827;53.594;9.938;2022-11-20T09:04:22;2.30;99.90
15452;DHT22;7827;53.594;9.938;2022-11-20T09:06:51;2.30;99.90
15452;DHT22;7827;53.594;9.938;2022-11-20T09:09:20;2.30;99.90
15452;DHT22;7827;53.594;9.938;2022-11-20T09:11:49;2.40;99.90
15452;DHT22;7827;53.594;9.938;2022-11-20T09:14:17;2.40;99.90
15452;DHT22;7827;53.594;9.938;2022-11-20T09:16:46;2.30;99.90
15452;DHT22;7827;53.594;9.938;2022-11-20T09:19:14;2.40;99.90
15452;DHT22;7827;53.594;9.938;2022-11-20T09:22:03;2.40;99.90
15452;DHT22;7827;53.594;9.938;2022-11-20T09:24:32;2.30;99.90
15452;DHT22;7827;53.594;9.938;2022-11-20T09:27:04;2.30;99.90
15452;DHT22;7827;53.594;9.938;2022-11-20T09:29:33;2.30;99.90
15452;DHT22;7827;53.594;9.938;2022-11-20T09:32:01;2.40;99.90
15452;DHT22;7827;53.594;9.938;2022-11-20T09:34:30;2.40;99.90
15452;DHT22;7827;53.594;9.938;2022-11-20T09:36:58;2.40;99.90
15452;DHT22;7827;53.594;9.938;2022-11-20T09:39:33;2.30;99.90
15452;DHT22;7827;53.594;9.938;2022-11-20T09:42:27;2.30;99.90
15452;DHT22;7827;53.594;9.938;2022-11-20T09:45:16;2.30;99.90
15452;DHT22;7827;53.594;9.938;2022-11-20T09:48:17;2.30;99.90
15452;DHT22;7827;53.594;9.938;2022-11-20T09:50:57;2.40;99.90
15452;DHT22;7827;53.594;9.938;2022-11-20T09:53:41;2.40;99.90
15452;DHT22;7827;53.594;9.938;2022-11-20T09:56:22;2.30;99.90
15452;DHT22;7827;53.594;9.938;2022-11-20T09:58:52;2.50;99.90
15452;DHT22;7827;53.594;9.938;2022-11-20T10:01:26;2.70;99.90
15452;DHT22;7827;53.594;9.938;2022-11-20T10:04:01;2.90;99.90
15452;DHT22;7827;53.594;9.938;2022-11-20T10:06:34;3.10;99.90
15452;DHT22;7827;53.594;9.938;2022-11-20T10:09:19;3.20;99.90
15452;DHT22;7827;53.594;9.938;2022-11-20T10:12:03;3.30;99.90
15452;DHT22;7827;53.594;9.938;2022-11-20T10:14:54;3.40;99.90
15452;DHT22;7827;53.594;9.938;2022-11-20T10:20:43;3.60;99.90
15452;DHT22;7827;53.594;9.938;2022-11-20T10:23:37;3.60;99.90
15452;DHT22;7827;53.594;9.938;2022-11-20T10:26:22;3.50;99.90
15452;DHT22;7827;53.594;9.938;2022-11-20T10:29:05;3.30;99.90
15452;DHT22;7827;53.594;9.938;2022-11-20T10:31:40;3.30;99.90
15452;DHT22;7827;53.594;9.938;2022-11-20T10:34:19;3.10;99.90
15452;DHT22;7827;53.594;9.938;2022-11-20T10:36:54;3.00;99.90
15452;DHT22;7827;53.594;9.938;2022-11-20T10:39:32;2.80;99.90
15452;DHT22;7827;53.594;9.938;2022-11-20T10:42:08;2.80;99.90
15452;DHT22;7827;53.594;9.938;2022-11-20T10:44:43;2.80;99.90
15452;DHT22;7827;53.594;9.938;2022-11-20T10:47:33;2.80;99.90
15452;DHT22;7827;53.594;9.938;2022-11-20T10:50:03;2.80;99.90
15452;DHT22;7827;53.594;9.938;2022-11-20T10:52:41;2.80;99.90
15452;DHT22;7827;53.594;9.938;2022-11-20T10:55:28;2.90;99.90
15452;DHT22;7827;53.594;9.938;2022-11-20T10:58:05;2.80;99.90
15452;DHT22;7827;53.594;9.938;2022-11-20T11:00:42;2.80;99.90
15452;DHT22;7827;53.594;9.938;2022-11-20T11:03:22;2.80;99.90
15452;DHT22;7827;53.594;9.938;2022-11-20T11:05:56;2.90;99.90
15452;DHT22;7827;53.594;9.938;2022-11-20T11:08:35;2.80;99.90
15452;DHT22;7827;53.594;9.938;2022-11-20T11:11:15;2.80;99.90
15452;DHT22;7827;53.594;9.938;2022-11-20T11:13:49;2.80;99.90
15452;DHT22;7827;53.594;9.938;2022-11-20T11:16:23;2.70;99.90
15452;DHT22;7827;53.594;9.938;2022-11-20T11:19:03;2.80;99.90
15452;DHT22;7827;53.594;9.938;2022-11-20T11:21:33;2.90;99.90
15452;DHT22;7827;53.594;9.938;2022-11-20T11:24:04;2.90;99.90
15452;DHT22;7827;53.594;9.938;2022-11-20T11:26:56;3.00;99.90
15452;DHT22;7827;53.594;9.938;2022-11-20T11:29:26;3.00;99.90
15452;DHT22;7827;53.594;9.938;2022-11-20T11:32:07;3.00;99.90
15452;DHT22;7827;53.594;9.938;2022-11-20T11:34:39;2.90;99.90
15452;DHT22;7827;53.594;9.938;2022-11-20T11:37:15;2.90;99.90
15452;DHT22;7827;53.594;9.938;2022-11-20T11:39:48;2.90;99.90
15452;DHT22;7827;53.594;9.938;2022-11-20T11:42:41;2.80;99.90
15452;DHT22;7827;53.594;9.938;2022-11-20T11:45:13;2.80;99.90
15452;DHT22;7827;53.594;9.938;2022-11-20T11:47:46;2.80;99.90
15452;DHT22;7827;53.594;9.938;2022-11-20T11:50:19;2.80;99.90
15452;DHT22;7827;53.594;9.938;2022-11-20T11:52:56;2.70;99.90
15452;DHT22;7827;53.594;9.938;2022-11-20T11:55:35;2.70;99.90
15452;DHT22;7827;53.594;9.938;2022-11-20T11:58:17;2.70;99.90
15452;DHT22;7827;53.594;9.938;2022-11-20T12:00:58;2.70;99.90
15452;DHT22;7827;53.594;9.938;2022-11-20T12:03:36;2.80;99.90
15452;DHT22;7827;53.594;9.938;2022-11-20T12:06:11;2.90;99.90
15452;DHT22;7827;53.594;9.938;2022-11-20T12:08:46;3.00;99.90
15452;DHT22;7827;53.594;9.938;2022-11-20T12:11:23;2.90;99.90
15452;DHT22;7827;53.594;9.938;2022-11-20T12:14:00;2.90;99.90
15452;DHT22;7827;53.594;9.938;2022-11-20T12:16:35;2.90;99.90
15452;DHT22;7827;53.594;9.938;2022-11-20T12:19:11;3.00;99.90
15452;DHT22;7827;53.594;9.938;2022-11-20T12:21:48;2.90;99.90
15452;DHT22;7827;53.594;9.938;2022-11-20T12:24:38;3.00;99.90
15452;DHT22;7827;53.594;9.938;2022-11-20T12:27:33;3.00;99.90
15452;DHT22;7827;53.594;9.938;2022-11-20T12:30:14;3.10;99.90
15452;DHT22;7827;53.594;9.938;2022-11-20T12:33:01;3.10;99.90
15452;DHT22;7827;53.594;9.938;2022-11-20T12:36:07;3.00;99.90
15452;DHT22;7827;53.594;9.938;2022-11-20T12:38:57;3.10;99.90
15452;DHT22;7827;53.594;9.938;2022-11-20T12:41:46;3.10;99.90
15452;DHT22;7827;53.594;9.938;2022-11-20T12:45:00;3.20;99.90
15452;DHT22;7827;53.594;9.938;2022-11-20T12:47:58;3.10;99.90
15452;DHT22;7827;53.594;9.938;2022-11-20T12:50:44;3.10;99.90
15452;DHT22;7827;53.594;9.938;2022-11-20T12:53:47;3.20;99.90
15452;DHT22;7827;53.594;9.938;2022-11-20T12:56:33;3.20;99.90
15452;DHT22;7827;53.594;9.938;2022-11-20T12:59:23;3.10;99.90
15452;DHT22;7827;53.594;9.938;2022-11-20T13:02:14;3.20;99.90
15452;DHT22;7827;53.594;9.938;2022-11-20T13:05:08;3.20;99.90
15452;DHT22;7827;53.594;9.938;2022-11-20T13:07:46;3.20;99.90
15452;DHT22;7827;53.594;9.938;2022-11-20T13:10:23;3.20;99.90
15452;DHT22;7827;53.594;9.938;2022-11-20T13:13:01;3.20;99.90
15452;DHT22;7827;53.594;9.938;2022-11-20T13:15:44;3.20;99.90
15452;DHT22;7827;53.594;9.938;2022-11-20T13:18:19;3.20;99.90
15452;DHT22;7827;53.594;9.938;2022-11-20T13:20:48;3.20;99.90
15452;DHT22;7827;53.594;9.938;2022-11-20T13:23:26;3.10;99.90
15452;DHT22;7827;53.594;9.938;2022-11-20T13:26:13;3.20;99.90
15452;DHT22;7827;53.594;9.938;2022-11-20T13:28:46;3.30;99.90
15452;DHT22;7827;53.594;9.938;2022-11-20T13:31:29;3.30;99.90
15452;DHT22;7827;53.594;9.938;2022-11-20T13:34:01;3.40;99.90
15452;DHT22;7827;53.594;9.938;2022-11-20T13:36:32;3.40;99.90
15452;DHT22;7827;53.594;9.938;2022-11-20T13:39:03;3.30;99.90
15452;DHT22;7827;53.594;9.938;2022-11-20T13:41:35;3.30;99.90
15452;DHT22;7827;53.594;9.938;2022-11-20T13:44:12;3.30;99.90
15452;DHT22;7827;53.594;9.938;2022-11-20T13:46:44;3.40;99.90
15452;DHT22;7827;53.594;9.938;2022-11-20T13:49:19;3.40;99.90
15452;DHT22;7827;53.594;9.938;2022-11-20T13:51:54;3.30;99.90
15452;DHT22;7827;53.594;9.938;2022-11-20T13:54:55;3.40;99.90
15452;DHT22;7827;53.594;9.938;2022-11-20T13:57:58;3.30;99.90
15452;DHT22;7827;53.594;9.938;2022-11-20T14:00:44;3.30;99.90
15452;DHT22;7827;53.594;9.938;2022-11-20T14:03:18;3.30;99.90
15452;DHT22;7827;53.594;9.938;2022-11-20T14:06:12;3.20;99.90
15452;DHT22;7827;53.594;9.938;2022-11-20T14:08:48;3.20;99.90
15452;DHT22;7827;53.594;9.938;2022-11-20T14:11:19;3.20;99.90
15452;DHT22;7827;53.594;9.938;2022-11-20T14:13:58;3.30;99.90
15452;DHT22;7827;53.594;9.938;2022-11-20T14:16:31;3.30;99.90
15452;DHT22;7827;53.594;9.938;2022-11-20T14:19:28;3.30;99.90
15452;DHT22;7827;53.594;9.938;2022-11-20T14:22:10;3.30;99.90
15452;DHT22;7827;53.594;9.938;2022-11-20T14:24:45;3.20;99.90
15452;DHT22;7827;53.594;9.938;2022-11-20T14:27:15;3.20;99.90
15452;DHT22;7827;53.594;9.938;2022-11-20T14:29:49;3.20;99.90
15452;DHT22;7827;53.594;9.938;2022-11-20T14:32:19;3.30;99.90
15452;DHT22;7827;53.594;9.938;2022-11-20T14:34:50;3.30;99.90
15452;DHT22;7827;53.594;9.938;2022-11-20T14:37:21;3.30;99.90
15452;DHT22;7827;53.594;9.938;2022-11-20T14:39:54;3.20;99.90
15452;DHT22;7827;53.594;9.938;2022-11-20T14:42:26;3.10;99.90
15452;DHT22;7827;53.594;9.938;2022-11-20T14:44:59;3.10;99.90
15452;DHT22;7827;53.594;9.938;2022-11-20T14:47:30;3.00;99.90
15452;DHT22;7827;53.594;9.938;2022-11-20T14:50:00;3.00;99.90
15452;DHT22;7827;53.594;9.938;2022-11-20T14:52:35;3.00;99.90
15452;DHT22;7827;53.594;9.938;2022-11-20T14:55:04;2.90;99.90
15452;DHT22;7827;53.594;9.938;2022-11-20T14:57:34;3.00;99.90
15452;DHT22;7827;53.594;9.938;2022-11-20T15:00:08;2.90;99.90
15452;DHT22;7827;53.594;9.938;2022-11-20T15:02:48;2.90;99.90
15452;DHT22;7827;53.594;9.938;2022-11-20T15:05:21;2.80;99.90
15452;DHT22;7827;53.594;9.938;2022-11-20T15:08:03;2.90;99.90
15452;DHT22;7827;53.594;9.938;2022-11-20T15:10:33;2.80;99.90
15452;DHT22;7827;53.594;9.938;2022-11-20T15:13:05;2.60;99.90
15452;DHT22;7827;53.594;9.938;2022-11-20T15:15:45;2.60;99.90
15452;DHT22;7827;53.594;9.938;2022-11-20T15:18:17;2.60;99.90
15452;DHT22;7827;53.594;9.938;2022-11-20T15:20:47;2.50;99.90
15452;DHT22;7827;53.594;9.938;2022-11-20T15:23:18;2.60;99.90
15452;DHT22;7827;53.594;9.938;2022-11-20T15:25:48;2.50;99.90
15452;DHT22;7827;53.594;9.938;2022-11-20T15:28:19;2.40;99.90
15452;DHT22;7827;53.594;9.938;2022-11-20T15:30:50;2.30;99.90
15452;DHT22;7827;53.594;9.938;2022-11-20T15:33:19;2.30;99.90
15452;DHT22;7827;53.594;9.938;2022-11-20T15:35:47;2.30;99.90
15452;DHT22;7827;53.594;9.938;2022-11-20T15:38:16;2.30;99.90
15452;DHT22;7827;53.594;9.938;2022-11-20T15:40:44;2.30;99.90
15452;DHT22;7827;53.594;9.938;2022-11-20T15:43:12;2.30;99.90
15452;DHT22;7827;53.594;9.938;2022-11-20T15:45:43;2.30;99.90
15452;DHT22;7827;53.594;9.938;2022-11-20T15:48:18;2.40;99.90
15452;DHT22;7827;53.594;9.938;2022-11-20T15:50:52;2.40;99.90
15452;DHT22;7827;53.594;9.938;2022-11-20T15:53:24;2.40;99.90
15452;DHT22;7827;53.594;9.938;2022-11-20T15:55:52;2.40;99.90
15452;DHT22;7827;53.594;9.938;2022-11-20T15:58:20;2.40;99.90
15452;DHT22;7827;53.594;9.938;2022-11-20T16:00:50;2.40;99.90
15452;DHT22;7827;53.594;9.938;2022-11-20T16:03:20;2.50;99.90
15452;DHT22;7827;53.594;9.938;2022-11-20T16:05:48;2.50;99.90
15452;DHT22;7827;53.594;9.938;2022-11-20T16:08:17;2.50;99.90
15452;DHT22;7827;53.594;9.938;2022-11-20T16:10:45;2.50;99.90
15452;DHT22;7827;53.594;9.938;2022-11-20T16:13:15;2.50;99.90
15452;DHT22;7827;53.594;9.938;2022-11-20T16:16:04;2.50;99.90
15452;DHT22;7827;53.594;9.938;2022-11-20T16:18:37;2.60;99.90
15452;DHT22;7827;53.594;9.938;2022-11-20T16:21:11;2.60;99.90
15452;DHT22;7827;53.594;9.938;2022-11-20T16:23:40;2.70;99.90
15452;DHT22;7827;53.594;9.938;2022-11-20T16:26:10;2.60;99.90
15452;DHT22;7827;53.594;9.938;2022-11-20T16:28:39;2.60;99.90
15452;DHT22;7827;53.594;9.938;2022-11-20T16:31:09;2.60;99.90
15452;DHT22;7827;53.594;9.938;2022-11-20T16:33:40;2.60;99.90
15452;DHT22;7827;53.594;9.938;2022-11-20T16:36:10;2.60;99.90
15452;DHT22;7827;53.594;9.938;2022-11-20T16:38:40;2.60;99.90
15452;DHT22;7827;53.594;9.938;2022-11-20T16:41:10;2.60;99.90
15452;DHT22;7827;53.594;9.938;2022-11-20T16:43:45;2.50;99.90
15452;DHT22;7827;53.594;9.938;2022-11-20T16:46:15;2.60;99.90